Time;durP1;ratioP1;P1;durP2;ratioP2;P2;SDS_P1;SDS_P2;PMS_P1;PMS_P2;Temp;Humidity;BMP_temperature;BMP_pressure;BME280_temperature;BME280_humidity;BME280_pressure;Samples;Min_cycle;Max_cycle;Signal;HPM_P1;HPM_P2
2022/06/19 00:01:01;;;;;;;9.73;4.53;;;;;;;17.78;64.62;100974.18;1655621;85;21079;-87
2022/06/19 00:03:31;;;;;;;10.00;4.70;;;;;;;17.78;64.70;100966.65;1676297;85;22559;-92
2022/06/19 00:05:59;;;;;;;11.40;4.45;;;;;;;17.79;64.78;100956.42;1664009;85;21123;-91
2022/06/19 00:08:28;;;;;;;8.03;4.85;;;;;;;17.81;64.84;100949.31;1665796;85;21349;-92
2022/06/19 00:10:55;;;;;;;9.53;4.70;;;;;;;17.83;64.93;100945.78;1655284;85;21073;-92
2022/06/19 00:13:22;;;;;;;7.95;4.22;;;;;;;17.85;65.01;100944.03;1661369;86;21083;-87
2022/06/19 00:15:49;;;;;;;7.65;4.65;;;;;;;17.91;65.14;100935.14;1665677;85;22599;-87
2022/06/19 00:18:16;;;;;;;9.15;4.28;;;;;;;17.96;65.03;100932.45;1647391;86;21128;-88
2022/06/19 00:20:43;;;;;;;5.55;4.08;;;;;;;18.00;65.13;100927.55;1663436;85;21079;-92
2022/06/19 00:23:09;;;;;;;9.03;4.80;;;;;;;18.02;65.07;100942.66;1664058;84;21150;-91
2022/06/19 00:25:37;;;;;;;5.87;4.72;;;;;;;18.02;64.99;100935.13;1728346;82;21086;-92
2022/06/19 00:28:04;;;;;;;6.95;4.47;;;;;;;18.00;65.02;100937.79;1716477;82;22629;-92
2022/06/19 00:30:31;;;;;;;8.70;4.40;;;;;;;17.97;65.08;100939.12;1718704;82;21091;-87
2022/06/19 00:32:58;;;;;;;6.85;4.67;;;;;;;17.95;65.15;100947.55;1715175;82;21674;-92
2022/06/19 00:35:28;;;;;;;8.80;4.80;;;;;;;17.94;65.19;100953.77;1725588;82;21070;-87
2022/06/19 00:37:55;;;;;;;7.12;4.12;;;;;;;17.93;65.26;100955.13;1713541;82;21569;-91
2022/06/19 00:40:22;;;;;;;8.55;4.95;;;;;;;17.91;65.34;100949.80;1728968;82;23036;-91
2022/06/19 00:42:48;;;;;;;8.40;4.33;;;;;;;17.90;65.43;100942.67;1718520;82;21074;-86
2022/06/19 00:45:51;;;;;;;5.75;4.22;;;;;;;17.89;65.47;100946.25;1720293;82;21067;-91
2022/06/19 00:48:27;;;;;;;5.00;4.30;;;;;;;17.90;65.53;100941.34;1695765;82;21460;-91
2022/06/19 00:50:54;;;;;;;10.48;4.95;;;;;;;17.91;65.52;100935.59;1740352;82;21775;-91
2022/06/19 00:53:42;;;;;;;7.20;5.17;;;;;;;17.91;65.56;100933.81;1682327;84;21711;-92
2022/06/19 00:56:17;;;;;;;7.60;4.55;;;;;;;17.92;65.63;100930.70;1739856;81;21079;-86
2022/06/19 00:58:44;;;;;;;10.28;5.03;;;;;;;17.95;65.66;100938.69;1688294;83;21442;-92
2022/06/19 01:01:18;;;;;;;8.10;5.00;;;;;;;17.95;65.67;100938.69;1721426;82;21648;-91
2022/06/19 01:04:05;;;;;;;6.12;4.92;;;;;;;17.92;65.65;100952.88;1717920;82;21083;-87
2022/06/19 01:06:32;;;;;;;7.47;4.80;;;;;;;17.91;65.74;100956.45;1710333;82;21801;-91
2022/06/19 01:08:59;;;;;;;8.95;4.50;;;;;;;17.89;65.71;100967.55;1731922;82;21099;-90
2022/06/19 01:11:30;;;;;;;7.60;4.97;;;;;;;17.89;65.78;100968.88;1711012;83;21097;-86
2022/06/19 01:13:57;;;;;;;8.43;6.00;;;;;;;17.87;65.79;100977.33;1711052;82;21139;-91
2022/06/19 01:16:24;;;;;;;9.70;4.58;;;;;;;17.84;65.79;100975.53;1711482;83;21498;-93
2022/06/19 01:18:51;;;;;;;8.08;4.85;;;;;;;17.82;65.86;100972.41;1711090;82;21794;-87
2022/06/19 01:21:29;;;;;;;8.43;5.10;;;;;;;17.81;65.88;100977.27;1710612;82;21561;-91
2022/06/19 01:24:05;;;;;;;10.25;5.08;;;;;;;17.76;65.92;100985.28;1710135;82;21051;-91
2022/06/19 01:26:38;;;;;;;8.85;4.60;;;;;;;17.73;65.96;100980.41;1709645;83;21088;-88
2022/06/19 01:29:05;;;;;;;8.33;5.05;;;;;;;17.69;66.04;100976.84;1710041;83;21055;-87
2022/06/19 01:31:36;;;;;;;8.25;4.50;;;;;;;17.67;66.11;100977.30;1739372;82;22662;-92
2022/06/19 01:34:26;;;;;;;8.78;4.72;;;;;;;17.65;66.17;100977.74;1721488;82;21047;-85
2022/06/19 01:36:35;;;;;;;6.97;5.80;;;;;;;17.60;66.17;100963.09;1728113;82;21023;-91
2022/06/19 01:39:01;;;;;;;7.28;5.03;;;;;;;17.53;66.17;100953.78;1683626;83;21561;-91
2022/06/19 01:41:31;;;;;;;11.03;5.12;;;;;;;17.44;66.25;100946.70;1679135;84;21137;-91
2022/06/19 01:43:58;;;;;;;8.80;6.00;;;;;;;17.36;66.35;100960.02;1735274;81;21806;-87
2022/06/19 01:46:27;;;;;;;8.80;5.50;;;;;;;17.26;66.44;100958.22;1740096;82;21074;-86
2022/06/19 01:48:56;;;;;;;7.28;5.50;;;;;;;17.20;66.60;100953.78;1738881;82;21044;-86
2022/06/19 01:51:23;;;;;;;9.10;6.08;;;;;;;17.13;66.70;100957.31;1719309;82;21083;-87
2022/06/19 01:53:59;;;;;;;7.70;5.92;;;;;;;17.07;66.83;100957.31;1729743;82;21110;-87
2022/06/19 01:56:26;;;;;;;7.95;6.20;;;;;;;17.04;67.04;100955.55;1709872;83;21800;-87
2022/06/19 01:58:57;;;;;;;7.65;6.08;;;;;;;17.02;67.11;100963.05;1688739;83;21660;-92
2022/06/19 02:01:24;;;;;;;9.73;6.42;;;;;;;16.97;67.21;100959.08;1730142;82;21708;-86
2022/06/19 02:03:56;;;;;;;13.58;7.10;;;;;;;16.93;67.28;100960.38;1716514;82;21055;-87
2022/06/19 02:06:28;;;;;;;12.68;7.65;;;;;;;16.89;67.37;100962.13;1712630;83;21579;-92
2022/06/19 02:08:54;;;;;;;13.22;8.95;;;;;;;16.85;67.48;100959.03;1713699;82;21765;-92
2022/06/19 02:11:24;;;;;;;15.05;7.87;;;;;;;16.80;67.59;100948.37;1729093;82;21549;-87
2022/06/19 02:13:50;;;;;;;18.30;7.80;;;;;;;16.79;67.69;100937.27;1710968;82;21083;-92
2022/06/19 02:16:35;;;;;;;13.80;7.37;;;;;;;16.77;67.79;100939.05;1712095;83;21166;-87
2022/06/19 02:19:02;;;;;;;16.48;8.18;;;;;;;16.74;67.83;100942.13;1712431;82;21107;-87
2022/06/19 02:21:44;;;;;;;16.48;7.90;;;;;;;16.68;68.01;100938.56;1726181;81;21801;-94
2022/06/19 02:24:14;;;;;;;12.50;7.05;;;;;;;16.65;68.11;100945.22;1730434;82;21090;-93
2022/06/19 02:26:42;;;;;;;8.63;6.50;;;;;;;16.62;68.25;100921.28;1721546;82;21086;-90
2022/06/19 02:29:10;;;;;;;14.45;7.08;;;;;;;16.61;68.35;100913.30;1719302;82;21146;-87
2022/06/19 02:31:40;;;;;;;14.75;7.15;;;;;;;16.56;68.38;100909.31;1710805;83;21080;-86
2022/06/19 02:34:36;;;;;;;11.73;7.00;;;;;;;16.52;68.43;100920.38;1710088;83;21780;-90
2022/06/19 02:37:21;;;;;;;9.10;7.20;;;;;;;16.54;68.64;100922.16;1660723;85;21067;-87
2022/06/19 02:40:26;;;;;;;12.00;7.40;;;;;;;16.52;68.67;100924.80;1734310;82;21556;-91
2022/06/19 02:42:52;;;;;;;12.93;8.33;;;;;;;16.52;68.75;100928.80;1708515;83;21174;-90
2022/06/19 02:45:22;;;;;;;10.05;6.70;;;;;;;16.54;68.79;100928.35;1709973;82;21055;-86
2022/06/19 02:47:50;;;;;;;11.45;7.30;;;;;;;16.55;68.92;100934.09;1710481;83;21865;-88
2022/06/19 02:50:22;;;;;;;11.25;7.00;;;;;;;16.56;68.94;100931.02;1710797;82;21083;-90
2022/06/19 02:52:50;;;;;;;9.70;7.25;;;;;;;16.59;69.09;100931.92;1699631;83;21056;-90
2022/06/19 02:55:17;;;;;;;10.15;7.35;;;;;;;16.65;69.13;100942.56;1716893;82;21058;-91
2022/06/19 02:57:44;;;;;;;9.50;6.90;;;;;;;16.71;69.20;100936.38;1723504;82;21104;-91
2022/06/19 03:00:24;;;;;;;12.23;6.72;;;;;;;16.79;69.28;100935.94;1702751;82;22186;-91
2022/06/19 03:02:54;;;;;;;7.97;6.60;;;;;;;16.90;69.31;100943.98;1708960;83;21035;-86
2022/06/19 03:05:24;;;;;;;11.50;6.70;;;;;;;17.01;69.19;100936.03;1712662;83;21078;-86
2022/06/19 03:07:51;;;;;;;13.00;7.42;;;;;;;17.09;69.11;100935.14;1709229;83;21534;-90
2022/06/19 03:10:17;;;;;;;12.30;6.97;;;;;;;17.21;69.08;100937.36;1709826;82;21131;-91
2022/06/19 03:12:44;;;;;;;8.63;5.83;;;;;;;17.32;69.05;100936.92;1724354;82;21818;-91
2022/06/19 03:15:12;;;;;;;10.58;6.12;;;;;;;17.45;69.04;100938.70;1731799;82;21264;-90
2022/06/19 03:17:39;;;;;;;6.17;5.58;;;;;;;17.60;68.77;100936.47;1714481;82;21054;-92
2022/06/19 03:20:08;;;;;;;11.45;6.05;;;;;;;17.69;68.52;100933.80;1724073;82;21597;-91
2022/06/19 03:22:35;;;;;;;9.08;5.47;;;;;;;17.79;68.41;100927.13;1716120;82;21122;-90
2022/06/19 03:25:01;;;;;;;8.43;6.20;;;;;;;17.91;68.28;100928.94;1705748;82;22029;-86
2022/06/19 03:27:28;;;;;;;8.68;5.28;;;;;;;18.03;68.25;100934.22;1731418;82;21328;-86
2022/06/19 03:29:55;;;;;;;8.43;5.47;;;;;;;18.15;67.98;100931.95;1740015;82;21058;-86
2022/06/19 03:32:24;;;;;;;9.50;5.00;;;;;;;18.33;68.09;100931.02;1736955;81;21090;-91
2022/06/19 03:34:50;;;;;;;8.30;5.55;;;;;;;18.59;67.99;100937.56;1708631;83;21083;-91
2022/06/19 03:37:17;;;;;;;6.80;5.03;;;;;;;18.89;67.70;100939.20;1709529;83;21747;-86
2022/06/19 03:39:44;;;;;;;12.47;5.25;;;;;;;19.18;67.32;100942.11;1714909;82;21047;-91
2022/06/19 03:42:11;;;;;;;9.58;5.17;;;;;;;19.41;66.90;100940.61;1733019;82;21490;-86
2022/06/19 03:44:38;;;;;;;5.60;4.62;;;;;;;19.68;66.62;100934.12;1718914;82;21047;-86
2022/06/19 03:47:05;;;;;;;11.20;5.62;;;;;;;20.02;66.22;100926.25;1725270;82;21257;-91
2022/06/19 03:49:32;;;;;;;9.03;4.83;;;;;;;20.36;65.73;100927.63;1715803;82;21755;-91
2022/06/19 03:51:59;;;;;;;7.42;4.53;;;;;;;20.74;65.29;100915.98;1719307;82;21059;-90
2022/06/19 03:54:26;;;;;;;8.78;4.45;;;;;;;21.29;64.97;100925.86;1725603;82;21655;-86
2022/06/19 03:56:54;;;;;;;6.35;4.45;;;;;;;21.87;64.20;100926.66;1732221;82;21062;-91
2022/06/19 03:59:20;;;;;;;5.67;4.12;;;;;;;22.38;63.50;100922.11;1730008;82;21135;-86
2022/06/19 04:01:54;;;;;;;8.45;4.35;;;;;;;23.13;62.56;100927.61;1719799;82;21908;-86
2022/06/19 04:04:21;;;;;;;8.18;4.35;;;;;;;23.54;61.43;100926.56;1717230;82;21107;-86
2022/06/19 04:06:47;;;;;;;7.40;3.80;;;;;;;25.02;59.81;100930.43;1738978;82;21584;-86
2022/06/19 04:09:16;;;;;;;5.37;3.72;;;;;;;25.02;59.81;100930.43;1705771;82;21058;-86
2022/06/19 04:11:43;;;;;;;6.90;4.00;;;;;;;25.71;58.59;100926.77;1709345;83;21140;-86
2022/06/19 04:14:11;;;;;;;6.17;3.92;;;;;;;26.06;57.08;100921.96;1710083;82;22670;-91
2022/06/19 04:16:38;;;;;;;4.90;4.05;;;;;;;26.18;55.77;100916.13;1707090;83;21067;-86
2022/06/19 04:19:06;;;;;;;5.72;3.72;;;;;;;25.73;54.83;100921.32;1708324;82;21079;-86
2022/06/19 04:21:38;;;;;;;6.37;4.20;;;;;;;25.71;55.24;100920.02;1709109;82;21071;-86
2022/06/19 04:24:05;;;;;;;7.33;4.10;;;;;;;26.32;55.02;100922.81;1684093;83;21134;-86
2022/06/19 04:26:35;;;;;;;9.00;4.25;;;;;;;26.79;53.94;100911.15;1703460;83;21816;-86
2022/06/19 04:29:03;;;;;;;8.30;4.05;;;;;;;26.94;53.29;100907.34;1704163;83;21081;-91
2022/06/19 04:31:29;;;;;;;4.67;3.62;;;;;;;27.10;52.73;100912.11;1706756;83;21099;-91
2022/06/19 04:33:56;;;;;;;6.45;3.50;;;;;;;27.46;52.36;100897.56;1727998;83;21091;-91
2022/06/19 04:36:24;;;;;;;3.80;3.15;;;;;;;28.19;51.87;100908.76;1707587;83;21075;-92
2022/06/19 04:38:51;;;;;;;6.95;3.62;;;;;;;28.92;50.73;100912.14;1713377;83;21759;-91
2022/06/19 04:41:31;;;;;;;8.18;3.77;;;;;;;29.58;49.83;100898.88;1705630;83;21070;-87
2022/06/19 04:43:58;;;;;;;6.45;3.55;;;;;;;30.22;48.94;100890.50;1702343;83;21138;-86
2022/06/19 04:46:25;;;;;;;5.45;2.92;;;;;;;30.76;47.70;100890.70;1704644;83;21059;-91
2022/06/19 04:48:52;;;;;;;7.55;4.17;;;;;;;31.22;46.80;100903.51;1699863;83;21029;-86
2022/06/19 04:51:19;;;;;;;7.10;3.22;;;;;;;31.70;46.03;100906.52;1700070;83;21760;-87
2022/06/19 04:53:46;;;;;;;5.83;3.33;;;;;;;32.15;44.93;100894.22;1704667;83;21085;-92
2022/06/19 04:56:14;;;;;;;6.92;3.60;;;;;;;32.59;44.27;100878.27;1698905;84;21073;-88
2022/06/19 04:58:53;;;;;;;5.05;3.47;;;;;;;33.06;43.46;100881.04;1699531;84;21559;-88
2022/06/19 05:01:26;;;;;;;6.70;3.10;;;;;;;33.50;42.64;100873.07;1699041;84;21156;-89
2022/06/19 05:03:57;;;;;;;8.95;3.33;;;;;;;33.95;41.53;100875.90;1708355;83;21785;-92
2022/06/19 05:06:24;;;;;;;3.55;2.87;;;;;;;34.41;40.77;100871.24;1687160;82;21060;-88
2022/06/19 05:08:51;;;;;;;4.83;3.00;;;;;;;34.83;40.01;100874.52;1716039;83;21048;-92
2022/06/19 05:11:18;;;;;;;3.60;2.50;;;;;;;35.19;39.06;100864.02;1702062;83;21071;-93
2022/06/19 05:13:48;;;;;;;8.65;2.58;;;;;;;35.40;38.42;100860.14;1704853;83;21080;-91
2022/06/19 05:16:18;;;;;;;7.03;2.55;;;;;;;35.75;37.81;100857.86;1705195;83;22607;-87
2022/06/19 05:18:45;;;;;;;10.63;2.85;;;;;;;36.17;37.17;100855.89;1710886;83;21078;-91
2022/06/19 05:21:12;;;;;;;6.12;2.47;;;;;;;36.55;36.22;100850.04;1720035;83;21194;-91
2022/06/19 05:23:42;;;;;;;2.72;2.12;;;;;;;36.78;35.54;100855.50;1661802;84;21088;-87
2022/06/19 05:26:18;;;;;;;7.75;2.30;;;;;;;37.03;34.83;100856.16;1729803;82;21652;-92
2022/06/19 05:28:46;;;;;;;5.25;2.60;;;;;;;37.17;34.08;100860.01;1714776;82;22633;-87
2022/06/19 05:31:12;;;;;;;6.20;2.60;;;;;;;37.38;33.64;100854.53;1735189;82;21067;-87
2022/06/19 05:33:39;;;;;;;3.72;2.05;;;;;;;37.67;33.09;100858.00;1735575;82;21075;-87
2022/06/19 05:36:20;;;;;;;5.75;1.92;;;;;;;37.76;32.13;100854.95;1729261;82;21529;-87
2022/06/19 05:38:47;;;;;;;5.42;2.30;;;;;;;37.75;32.28;100849.97;1734849;82;21043;-87
2022/06/19 05:41:14;;;;;;;4.35;2.33;;;;;;;37.87;31.59;100845.25;1734872;82;21900;-92
2022/06/19 05:43:41;;;;;;;2.98;2.20;;;;;;;37.33;30.73;100833.46;1724400;82;21208;-87
2022/06/19 05:46:16;;;;;;;6.60;2.40;;;;;;;36.18;30.65;100833.02;1719761;82;21107;-92
2022/06/19 05:48:43;;;;;;;8.10;2.95;;;;;;;34.86;31.08;100836.02;1710851;82;21565;-88
2022/06/19 05:51:12;;;;;;;5.85;2.90;;;;;;;33.60;31.58;100830.09;1708873;83;21083;-88
2022/06/19 05:53:42;;;;;;;8.10;2.65;;;;;;;32.62;32.34;100833.58;1701431;82;22444;-92
2022/06/19 05:56:08;;;;;;;5.30;2.45;;;;;;;31.87;32.94;100825.17;1702473;83;21546;-92
2022/06/19 05:58:37;;;;;;;3.40;2.40;;;;;;;31.14;33.51;100819.64;1705566;83;21584;-92
2022/06/19 06:01:04;;;;;;;3.77;2.35;;;;;;;30.52;34.23;100823.70;1705470;83;21075;-92
2022/06/19 06:03:32;;;;;;;5.17;2.45;;;;;;;30.06;34.83;100810.00;1724865;82;21074;-92
2022/06/19 06:06:07;;;;;;;6.33;2.72;;;;;;;29.60;35.22;100811.52;1707241;82;21685;-92
2022/06/19 06:08:38;;;;;;;5.28;2.02;;;;;;;29.22;35.68;100816.24;1704952;83;21659;-92
2022/06/19 06:11:11;;;;;;;4.12;2.20;;;;;;;28.96;35.97;100817.09;1713569;82;21043;-92
2022/06/19 06:13:38;;;;;;;3.90;2.30;;;;;;;28.62;36.25;100809.27;1717981;82;21082;-91
2022/06/19 06:16:05;;;;;;;5.67;2.37;;;;;;;28.35;36.59;100797.08;1726577;82;21086;-91
2022/06/19 06:18:32;;;;;;;2.92;1.80;;;;;;;28.05;37.03;100798.95;1721085;82;21768;-88
2022/06/19 06:21:03;;;;;;;4.62;2.70;;;;;;;27.87;37.06;100803.34;1714285;82;21162;-92
2022/06/19 06:23:30;;;;;;;6.28;2.60;;;;;;;27.63;37.40;100806.23;1734146;82;21138;-87
2022/06/19 06:26:03;;;;;;;6.97;2.87;;;;;;;27.40;37.95;100796.92;1726755;82;21067;-91
2022/06/19 06:28:30;;;;;;;4.90;2.83;;;;;;;27.27;38.30;100801.98;1710541;83;21106;-87
2022/06/19 06:30:57;;;;;;;4.85;2.55;;;;;;;27.10;38.49;100814.84;1720543;82;21928;-87
2022/06/19 06:33:24;;;;;;;4.05;2.17;;;;;;;26.88;38.96;100817.12;1708770;83;21023;-87
2022/06/19 06:35:51;;;;;;;2.80;1.98;;;;;;;26.78;39.05;100815.73;1713591;82;22028;-92
2022/06/19 06:38:18;;;;;;;4.12;2.08;;;;;;;26.60;39.18;100813.33;1739508;82;21071;-88
2022/06/19 06:40:45;;;;;;;4.50;2.30;;;;;;;26.49;39.32;100811.02;1727728;82;22137;-92
2022/06/19 06:43:12;;;;;;;5.58;2.30;;;;;;;26.48;39.48;100813.30;1721066;82;21793;-88
2022/06/19 06:45:38;;;;;;;6.40;2.60;;;;;;;26.45;39.58;100822.89;1729362;82;21638;-88
2022/06/19 06:48:05;;;;;;;5.80;2.15;;;;;;;26.34;39.73;100817.91;1740399;82;21036;-92
2022/06/19 06:50:32;;;;;;;4.22;2.08;;;;;;;26.31;39.87;100819.84;1718937;81;21173;-91
2022/06/19 06:52:59;;;;;;;4.72;2.40;;;;;;;26.29;39.88;100813.64;1739090;82;21075;-91
2022/06/19 06:55:26;;;;;;;3.67;1.77;;;;;;;26.22;39.81;100807.59;1695288;83;22583;-88
2022/06/19 06:57:53;;;;;;;7.75;2.15;;;;;;;26.16;39.88;100803.79;1692732;84;21282;-92
2022/06/19 07:00:22;;;;;;;4.25;2.08;;;;;;;26.16;39.77;100800.61;1667002;85;21127;-91
2022/06/19 07:02:48;;;;;;;2.83;1.92;;;;;;;26.12;39.28;100800.81;1689731;84;21582;-91
2022/06/19 07:05:15;;;;;;;7.72;1.82;;;;;;;26.03;39.02;100796.64;1711348;82;21127;-89
2022/06/19 07:07:42;;;;;;;6.08;1.80;;;;;;;25.99;38.86;100797.70;1703351;84;21770;-92
2022/06/19 07:10:11;;;;;;;5.08;1.77;;;;;;;25.95;38.78;100794.72;1724167;81;21051;-91
2022/06/19 07:12:39;;;;;;;3.95;1.77;;;;;;;25.98;38.91;100795.95;1740311;82;21095;-88
2022/06/19 07:15:21;;;;;;;2.47;1.70;;;;;;;26.07;38.86;100796.95;1705395;82;21043;-90
2022/06/19 07:17:48;;;;;;;3.27;1.85;;;;;;;26.15;38.37;100805.62;1709033;83;21066;-90
2022/06/19 07:20:49;;;;;;;2.83;1.50;;;;;;;26.20;38.26;100820.27;1722792;82;21749;-92
2022/06/19 07:23:16;;;;;;;2.67;1.70;;;;;;;26.27;37.89;100820.91;1693642;84;21136;-89
2022/06/19 07:25:42;;;;;;;2.90;1.60;;;;;;;26.33;37.80;100823.36;1726725;82;21082;-91
2022/06/19 07:28:13;;;;;;;3.45;1.70;;;;;;;26.62;37.68;100823.59;1725433;82;21064;-90
2022/06/19 07:30:42;;;;;;;5.25;2.02;;;;;;;26.81;37.30;100818.31;1699058;83;21081;-92
2022/06/19 07:33:10;;;;;;;5.03;1.55;;;;;;;26.83;37.08;100820.95;1733341;82;21788;-88
2022/06/19 07:35:40;;;;;;;3.83;1.98;;;;;;;26.74;37.04;100822.20;1738393;81;21066;-93
2022/06/19 07:38:07;;;;;;;7.60;2.50;;;;;;;26.64;37.12;100819.48;1735337;82;21079;-91
2022/06/19 07:40:33;;;;;;;6.42;2.33;;;;;;;26.42;37.49;100816.73;1726147;82;21079;-87
2022/06/19 07:43:00;;;;;;;5.08;2.20;;;;;;;25.92;37.88;100809.66;1726492;82;21012;-94
2022/06/19 07:45:30;;;;;;;4.78;2.00;;;;;;;25.59;38.32;100801.39;1717936;82;21721;-89
2022/06/19 07:50:43;;;;;;;4.58;2.40;;;;;;;25.26;39.29;100782.40;1730935;82;21138;-88
2022/06/19 07:53:10;;;;;;;6.17;2.70;;;;;;;25.18;39.96;100781.30;1727814;82;21116;-93
2022/06/19 07:55:39;;;;;;;6.50;2.67;;;;;;;24.99;40.10;100776.55;1738349;81;21628;-86
2022/06/19 07:58:05;;;;;;;4.62;2.27;;;;;;;24.86;40.62;100767.13;1733004;81;21772;-89
2022/06/19 08:00:42;;;;;;;3.37;1.60;;;;;;;24.68;40.88;100763.71;1718301;82;21071;-92
2022/06/19 08:03:09;;;;;;;4.17;2.17;;;;;;;24.68;41.16;100759.67;1716892;82;21130;-90
2022/06/19 08:05:37;;;;;;;6.80;2.60;;;;;;;24.68;41.55;100747.56;1713404;82;21080;-86
2022/06/19 08:08:08;;;;;;;5.70;2.20;;;;;;;24.68;41.61;100746.22;1718907;82;21585;-87
2022/06/19 08:10:38;;;;;;;6.28;2.40;;;;;;;24.51;41.42;100740.02;1705337;82;21739;-87
2022/06/19 08:13:19;;;;;;;5.60;2.85;;;;;;;24.34;41.73;100736.06;1718865;82;21489;-92
2022/06/19 08:15:49;;;;;;;7.97;2.72;;;;;;;24.27;41.99;100735.87;1710554;82;21096;-85
2022/06/19 08:18:15;;;;;;;4.47;2.33;;;;;;;24.08;42.25;100737.36;1725722;82;21056;-85
2022/06/19 08:20:42;;;;;;;4.55;2.27;;;;;;;23.92;42.56;100731.13;1729077;82;21050;-86
2022/06/19 08:23:09;;;;;;;3.50;2.20;;;;;;;23.84;42.98;100720.61;1718933;82;21813;-86
2022/06/19 08:25:36;;;;;;;7.70;2.25;;;;;;;23.85;42.83;100724.16;1721074;82;21075;-90
2022/06/19 08:28:03;;;;;;;4.85;1.82;;;;;;;23.78;42.97;100715.39;1723776;82;21143;-85
2022/06/19 08:30:34;;;;;;;7.97;2.20;;;;;;;23.85;43.06;100716.10;1726316;82;22184;-91
2022/06/19 08:33:12;;;;;;;5.10;2.87;;;;;;;23.90;42.76;100706.09;1697176;83;21027;-86
2022/06/19 08:35:45;;;;;;;5.47;3.10;;;;;;;23.91;43.87;100697.09;1686487;83;21819;-87
2022/06/19 08:38:52;;;;;;;6.58;3.15;;;;;;;23.85;44.47;100694.59;1732197;82;21094;-91
2022/06/19 08:41:38;;;;;;;8.63;3.98;;;;;;;23.72;44.97;100685.13;1716019;83;21130;-88
2022/06/19 08:44:39;;;;;;;12.07;3.50;;;;;;;23.69;45.40;100680.73;1721525;82;21079;-84
2022/06/19 08:48:01;;;;;;;8.63;5.35;;;;;;;23.58;45.91;100683.73;1713963;83;21064;-86
2022/06/19 08:51:01;;;;;;;8.50;6.08;;;;;;;23.49;46.74;100693.41;1682100;84;21872;-90
2022/06/19 08:53:48;;;;;;;12.13;5.62;;;;;;;23.15;47.37;100688.14;1674747;84;21644;-85
2022/06/19 08:56:46;;;;;;;8.70;4.33;;;;;;;22.95;48.00;100684.15;1668704;84;21076;-86
2022/06/19 08:59:29;;;;;;;10.70;5.62;;;;;;;22.90;48.46;100689.66;1667474;84;21126;-85
2022/06/19 09:02:08;;;;;;;9.48;5.85;;;;;;;22.82;48.81;100695.67;1658749;84;21704;-85
2022/06/19 09:08:10;;;;;;;6.47;5.05;;;;;;;22.46;50.04;100696.17;1681746;84;21122;-90
2022/06/19 09:10:51;;;;;;;8.73;4.95;;;;;;;22.46;50.61;100688.13;1665753;85;21107;-86
2022/06/19 09:13:29;;;;;;;7.30;5.37;;;;;;;22.58;50.68;100685.58;1677310;85;21116;-87
2022/06/19 09:19:52;;;;;;;7.97;4.85;;;;;;;22.67;50.93;100663.45;1676132;85;22643;-93
2022/06/19 09:22:36;;;;;;;8.20;4.30;;;;;;;22.87;50.75;100672.75;1668584;84;21110;-88
2022/06/19 09:25:32;;;;;;;9.48;4.12;;;;;;;22.88;50.54;100661.08;1659546;83;21083;-92
2022/06/19 09:28:07;;;;;;;6.72;3.95;;;;;;;22.85;50.70;100657.16;1696236;82;21122;-85
2022/06/19 09:30:44;;;;;;;6.00;3.55;;;;;;;22.72;50.86;100655.27;1701736;82;21027;-86
2022/06/19 09:33:22;;;;;;;7.87;4.80;;;;;;;22.30;51.03;100637.56;1670073;83;22530;-90
2022/06/19 09:35:57;;;;;;;8.20;4.20;;;;;;;22.30;51.03;100637.56;1690369;83;21122;-89
2022/06/19 09:38:38;;;;;;;8.08;3.72;;;;;;;22.27;51.29;100663.11;1704125;82;21098;-86
2022/06/19 09:41:08;;;;;;;9.43;3.95;;;;;;;22.16;51.62;100651.73;1709687;82;21087;-92
2022/06/19 09:43:46;;;;;;;7.95;3.72;;;;;;;22.13;51.67;100668.78;1700920;83;21130;-87
2022/06/19 09:46:21;;;;;;;9.50;4.00;;;;;;;22.00;52.10;100672.68;1668979;83;21838;-91
2022/06/19 09:49:08;;;;;;;7.03;4.37;;;;;;;21.94;52.32;100675.48;1694162;84;21078;-91
2022/06/19 09:51:49;;;;;;;7.92;4.33;;;;;;;21.97;52.68;100674.55;1705537;82;21083;-86
2022/06/19 09:54:33;;;;;;;7.92;4.22;;;;;;;21.93;52.76;100661.20;1701222;82;21102;-86
2022/06/19 09:57:35;;;;;;;10.15;3.52;;;;;;;21.77;52.80;100654.90;1702094;82;21067;-85
2022/06/19 10:00:17;;;;;;;5.33;3.85;;;;;;;21.73;53.22;100656.77;1697611;82;22599;-93
2022/06/19 10:03:01;;;;;;;6.25;4.60;;;;;;;21.80;53.22;100669.11;1685304;83;21063;-91
2022/06/19 10:05:51;;;;;;;8.43;4.20;;;;;;;21.69;53.29;100670.69;1680913;84;21087;-94
2022/06/19 10:08:43;;;;;;;8.95;3.65;;;;;;;21.64;53.50;100652.95;1693328;82;21527;-86
2022/06/19 10:11:17;;;;;;;6.55;3.45;;;;;;;21.67;53.33;100646.20;1694227;82;21043;-93
2022/06/19 10:13:59;;;;;;;9.28;3.80;;;;;;;21.61;53.15;100632.95;1687725;83;21939;-91
2022/06/19 10:16:47;;;;;;;6.20;3.33;;;;;;;21.53;53.20;100619.27;1683539;83;21051;-86
2022/06/19 10:19:28;;;;;;;7.78;3.30;;;;;;;21.44;53.21;100603.40;1679216;84;21059;-91
2022/06/19 10:22:16;;;;;;;6.70;3.00;;;;;;;21.57;53.24;100612.48;1656149;85;21075;-85
2022/06/19 10:25:33;;;;;;;6.97;2.95;;;;;;;21.58;52.73;100612.92;1650682;85;21080;-93
2022/06/19 10:28:18;;;;;;;6.55;2.80;;;;;;;21.45;52.71;100610.50;1661413;85;22853;-85
2022/06/19 10:30:57;;;;;;;;;;;;;;;21.59;52.51;100609.34;1653650;85;21087;-87
2022/06/19 10:33:49;;;;;;;7.60;3.20;;;;;;;21.54;52.42;100614.31;1578082;87;20846;-89
2022/06/19 10:36:41;;;;;;;4.65;2.50;;;;;;;21.42;52.17;100641.35;1682526;84;21044;-93
2022/06/19 10:39:46;;;;;;;8.13;2.87;;;;;;;21.40;52.14;100639.59;1697793;84;21056;-93
2022/06/19 10:42:59;;;;;;;9.38;2.80;;;;;;;21.39;52.17;100638.73;1688274;84;21784;-87
2022/06/19 10:45:46;;;;;;;4.67;2.22;;;;;;;21.52;52.09;100648.29;1671167;85;21680;-87
2022/06/19 10:48:36;;;;;;;9.48;2.50;;;;;;;21.57;51.18;100648.64;1582310;89;21225;-93
2022/06/19 10:51:21;;;;;;;7.70;2.20;;;;;;;21.53;50.83;100646.52;1582178;90;21125;-94
2022/06/19 10:54:05;;;;;;;5.83;2.62;;;;;;;21.44;50.55;100641.33;1582965;89;21092;-86
2022/06/19 10:56:43;;;;;;;6.12;2.50;;;;;;;21.39;50.46;100624.00;1582352;90;21857;-91
2022/06/19 10:59:09;;;;;;;10.35;2.20;;;;;;;21.47;50.09;100656.00;1591066;89;21095;-89
2022/06/19 11:05:03;;;;;;;12.75;2.80;;;;;;;21.20;49.53;100632.02;1595023;88;21267;-88
2022/06/19 11:07:42;;;;;;;6.90;2.40;;;;;;;21.22;49.26;100623.48;1595648;88;21123;-88
2022/06/19 11:10:29;;;;;;;9.93;2.67;;;;;;;21.25;49.26;100623.44;1603325;88;21955;-93
2022/06/19 11:12:57;;;;;;;7.40;2.25;;;;;;;21.30;48.83;100619.75;1600385;88;21104;-88
2022/06/19 11:15:45;;;;;;;13.15;2.27;;;;;;;21.39;48.81;100617.77;1596183;88;21131;-87
2022/06/19 11:18:22;;;;;;;8.65;2.47;;;;;;;21.34;48.31;100634.83;1594066;88;21153;-91
2022/06/19 11:20:59;;;;;;;10.03;2.60;;;;;;;21.22;48.20;100604.75;1595908;88;21135;-92
2022/06/19 11:23:51;;;;;;;12.43;2.85;;;;;;;21.22;48.18;100616.80;1588556;89;21918;-92
2022/06/19 11:26:23;;;;;;;10.98;2.35;;;;;;;21.11;48.32;100597.81;1622228;87;21127;-93
2022/06/19 11:28:59;;;;;;;12.35;2.90;;;;;;;20.96;48.94;100623.09;1594916;88;21655;-93
2022/06/19 11:31:37;;;;;;;8.48;2.62;;;;;;;20.59;48.94;100613.55;1604116;88;21130;-91
2022/06/19 11:37:39;;;;;;;12.18;2.70;;;;;;;20.30;49.63;100585.53;1598406;88;22597;-93
2022/06/19 11:40:21;;;;;;;10.75;3.00;;;;;;;20.24;49.82;100592.80;1572886;90;21142;-91
2022/06/19 11:42:51;;;;;;;14.18;3.00;;;;;;;20.10;49.84;100569.87;1637323;84;21044;-85
2022/06/19 11:45:23;;;;;;;13.08;2.70;;;;;;;19.95;49.98;100562.09;1680077;84;21060;-85
2022/06/19 11:48:00;;;;;;;12.47;2.65;;;;;;;19.91;50.14;100559.91;1697176;84;21029;-87
2022/06/19 11:50:49;;;;;;;9.65;2.77;;;;;;;19.97;50.09;100548.24;1710189;82;21839;-91
2022/06/19 11:53:23;;;;;;;10.80;2.83;;;;;;;20.00;50.06;100556.22;1685144;82;21056;-86
2022/06/19 11:55:54;;;;;;;9.38;2.65;;;;;;;19.98;49.89;100556.70;1645697;85;21612;-86
2022/06/19 11:58:32;;;;;;;9.48;2.40;;;;;;;19.89;49.62;100559.06;1656427;85;21628;-87
2022/06/19 12:01:11;;;;;;;8.33;2.80;;;;;;;19.71;49.99;100553.55;1661660;85;21051;-93
2022/06/19 12:03:53;;;;;;;11.40;3.10;;;;;;;19.61;49.82;100554.58;1687241;82;21770;-87
2022/06/19 12:06:41;;;;;;;9.23;2.90;;;;;;;19.58;50.14;100568.87;1699711;82;21033;-87
2022/06/19 12:09:12;;;;;;;10.13;2.25;;;;;;;19.61;49.92;100563.92;1693523;82;21562;-92